Time;durP1;ratioP1;P1;durP2;ratioP2;P2;SDS_P1;SDS_P2;PMS_P1;PMS_P2;Temp;Humidity;BMP_temperature;BMP_pressure;BME280_temperature;BME280_humidity;BME280_pressure;Samples;Min_cycle;Max_cycle;Signal;HPM_P1;HPM_P2
2022/10/02 00:00:20;;;;;;;6.50;4.50;;;;;;;11.65;85.29;99359.84;130541;1268;108827;-73
2022/10/02 00:03:46;;;;;;;6.80;5.00;;;;;;;11.69;85.02;99362.61;130408;1267;110646;-72
2022/10/02 00:06:55;;;;;;;7.00;4.50;;;;;;;11.71;85.10;99360.78;130349;1267;108661;-72
2022/10/02 00:10:06;;;;;;;5.80;4.90;;;;;;;11.72;85.04;99357.19;130428;1268;108839;-71
2022/10/02 00:13:16;;;;;;;6.90;5.00;;;;;;;11.70;85.15;99360.45;130451;1267;108679;-71
2022/10/02 00:16:27;;;;;;;5.90;4.40;;;;;;;11.68;85.32;99358.27;130526;1268;108727;-71
2022/10/02 00:19:33;;;;;;;8.10;5.80;;;;;;;11.66;85.25;99358.65;130500;1268;108241;-71
2022/10/02 00:22:50;;;;;;;7.50;5.10;;;;;;;11.68;85.10;99360.95;130250;1268;107611;-70
2022/10/02 00:26:03;;;;;;;7.10;5.30;;;;;;;11.68;85.32;99360.17;130452;1268;109683;-71
2022/10/02 00:29:23;;;;;;;6.10;5.10;;;;;;;11.68;85.19;99357.58;130414;1267;108892;-70
2022/10/02 00:32:35;;;;;;;7.20;5.20;;;;;;;11.60;85.27;99355.93;130428;1268;109077;-73
2022/10/02 00:36:05;;;;;;;7.90;5.10;;;;;;;11.52;85.18;99354.45;130282;1268;107658;-71
2022/10/02 00:39:23;;;;;;;6.30;5.20;;;;;;;11.46;85.19;99358.70;130385;1268;108254;-73
2022/10/02 00:42:57;;;;;;;6.20;5.20;;;;;;;11.40;85.33;99358.17;130516;1268;107720;-71
2022/10/02 00:46:24;;;;;;;7.90;5.40;;;;;;;11.39;85.71;99359.71;130440;1267;108824;-71
2022/10/02 00:49:53;;;;;;;7.20;5.40;;;;;;;11.38;85.44;99366.69;130490;1266;108964;-71
2022/10/02 00:53:14;;;;;;;7.10;5.10;;;;;;;11.38;85.39;99371.55;130350;1268;108743;-71
2022/10/02 00:56:30;;;;;;;6.00;4.70;;;;;;;11.38;85.53;99372.80;130520;1267;108653;-71
2022/10/02 00:59:53;;;;;;;6.30;5.20;;;;;;;11.38;85.40;99373.43;130513;1268;108792;-71
2022/10/02 01:03:10;;;;;;;7.40;5.50;;;;;;;11.39;85.47;99374.23;130385;1268;108705;-71
2022/10/02 01:06:15;;;;;;;8.00;5.70;;;;;;;11.42;85.53;99378.02;130395;1268;108768;-71
2022/10/02 01:09:21;;;;;;;6.50;5.80;;;;;;;11.47;85.71;99385.52;130428;1267;107695;-73
2022/10/02 01:12:26;;;;;;;7.80;5.30;;;;;;;11.48;85.86;99392.71;130535;1266;109079;-71
2022/10/02 01:15:34;;;;;;;6.10;5.00;;;;;;;11.47;85.62;99393.49;130349;1267;108629;-71
2022/10/02 01:18:41;;;;;;;6.20;5.10;;;;;;;11.50;86.02;99394.61;130483;1268;107456;-71
2022/10/02 01:21:53;;;;;;;7.10;5.40;;;;;;;11.53;85.79;99392.04;130396;1267;108819;-72
2022/10/02 01:25:03;;;;;;;6.70;5.40;;;;;;;11.57;85.53;99394.57;130555;1267;108676;-72
2022/10/02 01:28:10;;;;;;;7.80;5.80;;;;;;;11.59;86.04;99393.62;130379;1267;108711;-71
2022/10/02 01:31:16;;;;;;;8.20;6.00;;;;;;;11.57;85.70;99395.84;130423;1267;108840;-70
2022/10/02 01:34:22;;;;;;;8.70;5.20;;;;;;;11.55;86.04;99402.54;130499;1268;108566;-71
2022/10/02 01:37:33;;;;;;;5.80;5.10;;;;;;;11.56;85.86;99407.01;130469;1267;108767;-72
2022/10/02 01:40:40;;;;;;;6.80;5.20;;;;;;;11.59;85.86;99404.05;130457;1267;108900;-71
2022/10/02 01:43:49;;;;;;;7.40;5.60;;;;;;;11.62;85.91;99410.14;130472;1266;107702;-71
2022/10/02 01:47:00;;;;;;;7.70;5.70;;;;;;;11.61;85.92;99411.95;130362;1267;108819;-71
2022/10/02 01:50:17;;;;;;;6.50;5.00;;;;;;;11.60;85.97;99412.13;130426;1267;107707;-71
2022/10/02 01:53:31;;;;;;;6.30;5.20;;;;;;;11.61;86.32;99410.98;130356;1266;108686;-71
2022/10/02 01:56:46;;;;;;;8.30;5.50;;;;;;;11.62;86.13;99414.04;130433;1268;108615;-71
2022/10/02 02:00:04;;;;;;;6.50;5.50;;;;;;;11.59;86.28;99409.32;130616;1267;108909;-70
2022/10/02 02:03:22;;;;;;;5.90;5.20;;;;;;;11.54;85.96;99413.85;130503;1267;108776;-71
2022/10/02 02:06:33;;;;;;;7.20;6.00;;;;;;;11.47;85.92;99415.23;130417;1267;108973;-71
2022/10/02 02:09:42;;;;;;;6.50;5.10;;;;;;;11.38;85.99;99421.91;130500;1267;109104;-71
2022/10/02 02:12:55;;;;;;;5.90;5.00;;;;;;;11.29;86.16;99421.34;130445;1265;107675;-70
2022/10/02 02:16:05;;;;;;;7.40;5.30;;;;;;;11.23;85.96;99421.52;130424;1267;108628;-71
2022/10/02 02:19:17;;;;;;;7.50;6.00;;;;;;;11.21;86.44;99433.72;130312;1266;108998;-72
2022/10/02 02:22:28;;;;;;;6.20;5.60;;;;;;;11.21;86.35;99432.33;130375;1268;108834;-71
2022/10/02 02:25:38;;;;;;;6.90;6.00;;;;;;;11.21;86.44;99438.33;130375;1268;108729;-71
2022/10/02 02:28:48;;;;;;;7.40;5.80;;;;;;;11.22;86.44;99438.64;130428;1267;108773;-71
2022/10/02 02:31:56;;;;;;;7.20;5.80;;;;;;;11.20;86.53;99441.23;130332;1268;108582;-73
2022/10/02 02:35:08;;;;;;;8.80;6.10;;;;;;;11.23;86.71;99441.56;130462;1265;109674;-71
2022/10/02 02:38:18;;;;;;;7.60;6.40;;;;;;;11.28;86.87;99443.27;130361;1267;108968;-71
2022/10/02 02:41:27;;;;;;;9.00;6.40;;;;;;;11.34;86.97;99443.21;130439;1268;108909;-71
2022/10/02 02:44:38;;;;;;;9.00;6.80;;;;;;;11.40;86.98;99439.16;130446;1268;108749;-72
2022/10/02 02:47:48;;;;;;;7.60;6.40;;;;;;;11.40;87.03;99442.66;130477;1268;107343;-72
2022/10/02 02:50:58;;;;;;;9.10;5.80;;;;;;;11.43;86.98;99445.98;130528;1266;109833;-71
2022/10/02 02:54:08;;;;;;;7.70;6.40;;;;;;;11.45;87.14;99448.41;130556;1268;108808;-72
2022/10/02 02:57:15;;;;;;;7.10;6.40;;;;;;;11.48;87.31;99450.10;130664;1266;108548;-71
2022/10/02 03:00:22;;;;;;;7.90;6.70;;;;;;;11.51;87.35;99451.94;130428;1267;108726;-73
2022/10/02 03:03:28;;;;;;;8.90;6.90;;;;;;;11.54;87.06;99454.13;130638;1268;108763;-72
2022/10/02 03:06:36;;;;;;;7.00;6.20;;;;;;;11.52;87.21;99457.17;130547;1266;107872;-72
2022/10/02 03:09:46;;;;;;;7.30;5.80;;;;;;;11.50;87.61;99462.43;130609;1268;108650;-72
2022/10/02 03:13:04;;;;;;;7.40;6.30;;;;;;;11.49;87.47;99471.29;130451;1266;107694;-72
2022/10/02 03:16:21;;;;;;;8.10;6.30;;;;;;;11.50;87.69;99470.64;130714;1268;108769;-71
2022/10/02 03:19:43;;;;;;;8.50;6.90;;;;;;;11.53;87.91;99476.67;130732;1267;108510;-71
2022/10/02 03:22:58;;;;;;;8.30;7.50;;;;;;;11.53;87.76;99479.48;130502;1268;108695;-71
2022/10/02 03:26:09;;;;;;;6.80;6.10;;;;;;;11.52;87.38;99482.68;130203;1268;108556;-71
2022/10/02 03:29:23;;;;;;;7.80;5.80;;;;;;;11.51;87.84;99482.99;130361;1267;108654;-72
2022/10/02 03:32:30;;;;;;;7.80;6.80;;;;;;;11.50;88.04;99481.50;130472;1267;108609;-71
2022/10/02 03:35:35;;;;;;;7.70;6.80;;;;;;;11.50;87.96;99483.30;130407;1268;108984;-72
2022/10/02 03:38:42;;;;;;;9.50;7.00;;;;;;;11.50;87.94;99477.42;130397;1267;108715;-71
2022/10/02 03:41:47;;;;;;;6.60;5.90;;;;;;;11.52;87.82;99476.64;130395;1267;109103;-71
2022/10/02 03:44:53;;;;;;;7.50;5.90;;;;;;;11.54;87.67;99482.80;130430;1266;108936;-71
2022/10/02 03:47:58;;;;;;;7.70;6.80;;;;;;;11.54;88.19;99482.77;130361;1267;106908;-72
2022/10/02 03:51:04;;;;;;;7.10;6.40;;;;;;;11.53;87.84;99483.86;130239;1268;108713;-71
2022/10/02 03:54:16;;;;;;;7.10;6.40;;;;;;;11.54;87.94;99486.58;130176;1268;108596;-71
2022/10/02 03:57:23;;;;;;;7.20;6.30;;;;;;;11.56;88.06;99487.86;130548;1267;108996;-72
2022/10/02 04:00:36;;;;;;;6.80;5.90;;;;;;;11.58;87.97;99490.81;130468;1267;108695;-71
2022/10/02 04:03:43;;;;;;;;;;;;;;;11.58;88.01;99490.69;130414;1267;108828;-71
2022/10/02 04:06:52;;;;;;;6.70;5.30;;;;;;;11.54;88.21;99490.95;130378;1268;108828;-71
2022/10/02 04:10:14;;;;;;;7.30;6.20;;;;;;;11.56;88.43;99488.48;130396;1268;108812;-71
2022/10/02 04:13:27;;;;;;;7.00;6.30;;;;;;;11.61;88.28;99492.46;130361;1267;108903;-71
2022/10/02 04:16:39;;;;;;;8.90;6.60;;;;;;;11.63;88.28;99489.09;130378;1267;109206;-71
2022/10/02 04:19:49;;;;;;;8.40;6.30;;;;;;;11.65;88.22;99494.38;130370;1266;108813;-71
2022/10/02 04:22:59;;;;;;;20.70;14.20;;;;;;;11.66;88.21;99501.05;130431;1267;108920;-71
2022/10/02 04:26:14;;;;;;;31.00;21.60;;;;;;;11.68;88.35;99506.48;130350;1268;109804;-72
2022/10/02 04:29:23;;;;;;;13.90;10.10;;;;;;;11.69;88.48;99507.57;130543;1267;108691;-72
2022/10/02 04:32:31;;;;;;;80.30;39.70;;;;;;;11.67;88.30;99513.58;130540;1267;109800;-72
2022/10/02 04:35:46;;;;;;;79.50;49.00;;;;;;;11.66;88.79;99514.92;130648;1267;108810;-72
2022/10/02 04:39:27;;;;;;;125.60;73.30;;;;;;;11.64;88.26;99520.60;130561;1267;109976;-72
2022/10/02 04:42:46;;;;;;;220.60;105.60;;;;;;;11.65;88.35;99519.97;130542;1267;107368;-72
2022/10/02 04:46:04;;;;;;;54.00;35.20;;;;;;;11.67;88.57;99523.48;130486;1266;108672;-71
2022/10/02 04:49:26;;;;;;;667.70;346.10;;;;;;;11.66;88.74;99526.34;130454;1267;108537;-71
2022/10/02 04:52:47;;;;;;;119.90;58.20;;;;;;;11.68;88.93;99530.04;130332;1267;107777;-74
2022/10/02 04:56:12;;;;;;;205.40;116.60;;;;;;;11.63;89.00;99528.66;130323;1267;109036;-71
2022/10/02 04:59:31;;;;;;;55.80;34.40;;;;;;;11.61;88.82;99533.86;130398;1267;109471;-72
2022/10/02 05:03:02;;;;;;;47.60;30.20;;;;;;;11.61;89.38;99534.16;130230;1267;108523;-71
2022/10/02 05:06:24;;;;;;;13.30;8.80;;;;;;;11.59;89.31;99530.17;130446;1268;108657;-72
2022/10/02 05:09:39;;;;;;;7.60;6.10;;;;;;;11.61;89.52;99537.36;130461;1267;108820;-70
2022/10/02 05:13:01;;;;;;;8.20;5.50;;;;;;;11.62;89.70;99541.20;130460;1267;109460;-72
2022/10/02 05:16:28;;;;;;;6.60;5.50;;;;;;;11.56;90.17;99546.84;130283;1267;108687;-70
2022/10/02 05:19:53;;;;;;;78.60;38.40;;;;;;;11.53;90.16;99545.48;130435;1266;107568;-71
2022/10/02 05:23:12;;;;;;;15.00;9.30;;;;;;;11.50;90.64;99552.52;130244;1267;108780;-70
2022/10/02 05:26:57;;;;;;;11.10;7.90;;;;;;;11.50;90.71;99555.08;130350;1267;108797;-70
2022/10/02 05:30:09;;;;;;;30.60;22.00;;;;;;;11.47;91.36;99554.70;130377;1267;108876;-74
2022/10/02 05:33:22;;;;;;;;;;;;;;;11.44;91.07;99557.71;130435;1267;107591;-70
2022/10/02 05:36:42;;;;;;;50.10;21.70;;;;;;;11.46;91.02;99568.59;130318;1268;109017;-69
2022/10/02 05:39:56;;;;;;;64.10;29.40;;;;;;;11.51;90.97;99571.00;130378;1267;108684;-69
2022/10/02 05:43:06;;;;;;;30.70;16.20;;;;;;;11.55;90.85;99569.06;130282;1268;107437;-69
2022/10/02 05:46:20;;;;;;;21.30;13.30;;;;;;;11.58;90.66;99572.98;130302;1267;108642;-70
2022/10/02 05:49:32;;;;;;;41.60;22.40;;;;;;;11.60;90.72;99573.98;130295;1267;108666;-71
2022/10/02 05:52:42;;;;;;;13.70;8.10;;;;;;;11.64;90.24;99578.52;131196;1267;107761;-72
2022/10/02 05:55:52;;;;;;;6.20;4.10;;;;;;;11.70;90.43;99580.36;130590;1267;108593;-71
2022/10/02 05:59:02;;;;;;;7.40;4.70;;;;;;;11.75;90.33;99585.64;130417;1267;108619;-71
2022/10/02 06:02:18;;;;;;;21.00;9.70;;;;;;;11.79;90.22;99587.27;130441;1267;106896;-72
2022/10/02 06:05:33;;;;;;;108.60;45.20;;;;;;;11.86;89.96;99587.11;130501;1267;109302;-71
2022/10/02 06:08:45;;;;;;;72.00;19.70;;;;;;;11.87;89.95;99594.95;130471;1266;108857;-71
2022/10/02 06:11:55;;;;;;;69.80;29.90;;;;;;;11.85;89.96;99595.20;130454;1267;108664;-70
2022/10/02 06:15:06;;;;;;;60.40;21.40;;;;;;;11.89;89.80;99598.73;130391;1267;108656;-71
2022/10/02 06:18:16;;;;;;;31.20;10.80;;;;;;;12.00;89.69;99602.94;130580;1267;108690;-73
2022/10/02 06:21:31;;;;;;;14.80;5.50;;;;;;;12.03;89.30;99603.69;130462;1267;106843;-72
2022/10/02 06:24:43;;;;;;;64.60;20.00;;;;;;;12.02;89.39;99608.04;130443;1268;109075;-72
2022/10/02 06:27:55;;;;;;;402.30;124.50;;;;;;;12.06;89.33;99613.98;130434;1268;108786;-71
2022/10/02 06:31:06;;;;;;;77.20;37.10;;;;;;;12.14;89.20;99614.17;130569;1267;108695;-72
2022/10/02 06:34:14;;;;;;;17.60;9.90;;;;;;;12.22;89.07;99619.56;130512;1268;108508;-72
2022/10/02 06:37:35;;;;;;;36.00;19.80;;;;;;;12.18;88.93;99625.77;130456;1267;109736;-72
2022/10/02 06:40:46;;;;;;;167.70;97.90;;;;;;;12.18;89.25;99625.11;130452;1267;108752;-73
2022/10/02 06:44:15;;;;;;;42.20;26.20;;;;;;;12.27;88.99;99627.27;130531;1267;108827;-76
2022/10/02 06:47:35;;;;;;;27.40;14.80;;;;;;;12.31;89.04;99628.38;130598;1267;108924;-79
2022/10/02 06:50:49;;;;;;;62.10;36.00;;;;;;;12.38;88.67;99639.16;130966;1267;108771;-77
2022/10/02 06:54:20;;;;;;;22.10;13.20;;;;;;;12.38;88.67;99637.36;130759;1267;108043;-76
2022/10/02 06:57:40;;;;;;;63.00;43.10;;;;;;;12.42;88.53;99639.39;130480;1267;107518;-75
2022/10/02 07:00:52;;;;;;;51.40;36.10;;;;;;;12.54;88.29;99635.54;130529;1266;108586;-76
2022/10/02 07:04:19;;;;;;;18.40;16.10;;;;;;;12.64;88.17;99637.08;130421;1267;109136;-73
2022/10/02 07:07:39;;;;;;;32.40;23.80;;;;;;;12.73;87.99;99641.15;130512;1266;108750;-73
2022/10/02 07:10:55;;;;;;;18.90;13.80;;;;;;;12.68;87.09;99643.31;130500;1268;107748;-74
2022/10/02 07:14:18;;;;;;;10.20;5.10;;;;;;;12.72;87.42;99646.29;130425;1267;108684;-76
2022/10/02 07:17:38;;;;;;;11.60;7.90;;;;;;;12.71;87.63;99648.10;130407;1268;109853;-76
2022/10/02 07:21:12;;;;;;;7.20;3.20;;;;;;;12.77;86.33;99651.69;130529;1268;108533;-75
2022/10/02 07:24:39;;;;;;;6.70;5.20;;;;;;;12.99;86.99;99647.19;130275;1268;109580;-74
2022/10/02 07:27:53;;;;;;;21.60;17.90;;;;;;;13.23;86.88;99647.46;130443;1267;109410;-73
2022/10/02 07:31:06;;;;;;;12.60;6.50;;;;;;;13.32;85.48;99649.09;130547;1267;108672;-74
2022/10/02 07:34:24;;;;;;;45.30;35.10;;;;;;;13.24;84.33;99651.10;130448;1266;107943;-73
2022/10/02 07:37:42;;;;;;;24.90;21.50;;;;;;;13.14;85.53;99646.18;130437;1265;107730;-77
2022/10/02 07:40:59;;;;;;;7.00;3.90;;;;;;;13.23;85.30;99656.05;130614;1267;108739;-79
2022/10/02 07:44:17;;;;;;;7.00;3.20;;;;;;;13.36;84.45;99659.69;130550;1267;108987;-78
2022/10/02 07:47:41;;;;;;;8.30;4.40;;;;;;;13.41;84.10;99661.95;130543;1267;108867;-75
2022/10/02 07:50:59;;;;;;;7.00;2.50;;;;;;;13.44;83.72;99664.25;130286;1267;107119;-72
2022/10/02 07:54:16;;;;;;;4.80;2.10;;;;;;;13.39;84.01;99660.57;130254;1266;108999;-74
2022/10/02 07:57:30;;;;;;;5.80;2.50;;;;;;;13.39;83.01;99662.91;130472;1267;108855;-70
2022/10/02 08:00:40;;;;;;;7.90;3.90;;;;;;;13.34;82.55;99660.41;130397;1267;108855;-71
2022/10/02 08:03:51;;;;;;;6.60;2.70;;;;;;;13.44;82.85;99665.24;130230;1267;108873;-70
2022/10/02 08:07:02;;;;;;;4.80;2.10;;;;;;;13.58;83.27;99665.45;130288;1267;108183;-70
2022/10/02 08:10:15;;;;;;;7.40;1.90;;;;;;;13.79;83.68;99667.30;130429;1266;108418;-72
2022/10/02 08:13:27;;;;;;;5.20;1.80;;;;;;;13.91;80.18;99666.27;130673;1267;108777;-77
2022/10/02 08:16:34;;;;;;;;;;;;;;;13.89;81.97;99668.46;130501;1267;108544;-71
2022/10/02 08:19:45;;;;;;;7.20;3.60;;;;;;;13.87;81.81;99659.77;130509;1268;108527;-72
2022/10/02 08:22:55;;;;;;;6.00;3.20;;;;;;;13.82;82.39;99663.42;132258;1267;109117;-72
2022/10/02 08:26:07;;;;;;;5.40;2.30;;;;;;;13.78;81.65;99671.27;130271;1267;108570;-72
2022/10/02 08:29:21;;;;;;;10.00;5.00;;;;;;;13.82;82.22;99670.36;130364;1267;108783;-71
2022/10/02 08:32:30;;;;;;;10.30;3.70;;;;;;;13.90;81.74;99675.48;130467;1268;109035;-72
2022/10/02 08:35:44;;;;;;;5.20;2.00;;;;;;;13.95;81.62;99673.40;130462;1267;108446;-72
2022/10/02 08:38:53;;;;;;;6.70;2.90;;;;;;;13.99;80.64;99670.23;130447;1267;108613;-70
2022/10/02 08:42:26;;;;;;;6.00;2.20;;;;;;;14.06;81.23;99666.54;130410;1267;108832;-73
2022/10/02 08:46:05;;;;;;;7.80;3.40;;;;;;;14.24;81.25;99664.66;130470;1267;108709;-71
2022/10/02 08:49:42;;;;;;;9.50;4.20;;;;;;;14.34;79.84;99664.48;130388;1268;108719;-71
2022/10/02 08:53:23;;;;;;;4.90;2.30;;;;;;;14.28;80.25;99657.35;130483;1268;108874;-71
2022/10/02 08:56:57;;;;;;;8.70;3.10;;;;;;;14.25;80.79;99665.63;130391;1268;108637;-71
2022/10/02 09:00:13;;;;;;;7.30;2.30;;;;;;;14.14;80.68;99664.48;130545;1267;107561;-73
2022/10/02 09:03:53;;;;;;;7.10;3.80;;;;;;;13.93;80.55;99663.61;130424;1267;108760;-71
2022/10/02 09:07:25;;;;;;;4.70;2.30;;;;;;;13.76;81.01;99660.59;130362;1268;108557;-71
2022/10/02 09:11:10;;;;;;;5.60;2.70;;;;;;;13.66;81.09;99666.09;130414;1267;108822;-71
2022/10/02 09:14:42;;;;;;;5.90;2.60;;;;;;;13.75;81.56;99664.63;130504;1267;108989;-71
2022/10/02 09:17:59;;;;;;;6.10;2.30;;;;;;;13.99;81.22;99657.40;130538;1267;108690;-73
2022/10/02 09:21:19;;;;;;;7.60;2.90;;;;;;;14.17;79.93;99654.44;130479;1268;108550;-73
2022/10/02 09:24:58;;;;;;;6.20;2.80;;;;;;;14.26;79.14;99653.20;130724;1267;109048;-70
2022/10/02 09:28:26;;;;;;;6.30;2.20;;;;;;;14.49;78.10;99647.61;130489;1266;108686;-70
2022/10/02 09:32:17;;;;;;;6.40;2.00;;;;;;;14.86;79.17;99643.70;130364;1268;108601;-73
2022/10/02 09:35:52;;;;;;;5.40;1.80;;;;;;;15.17;77.41;99646.30;130466;1266;109005;-72
2022/10/02 09:39:37;;;;;;;5.20;1.90;;;;;;;15.21;77.57;99642.23;130281;1268;108920;-74
2022/10/02 09:43:21;;;;;;;5.20;2.10;;;;;;;15.26;75.80;99640.48;130212;1268;107624;-72
2022/10/02 09:46:59;;;;;;;8.00;3.00;;;;;;;15.28;76.49;99643.50;130558;1267;107788;-73
2022/10/02 09:50:30;;;;;;;7.30;2.30;;;;;;;15.42;76.08;99643.91;130422;1267;108692;-72
2022/10/02 09:54:20;;;;;;;5.40;2.50;;;;;;;15.60;76.81;99633.75;130480;1268;108894;-74
2022/10/02 09:58:00;;;;;;;6.20;2.90;;;;;;;15.64;75.27;99635.77;130042;1268;107633;-73
2022/10/02 10:01:29;;;;;;;6.50;3.20;;;;;;;15.52;75.03;99633.35;130443;1268;107673;-72
2022/10/02 10:04:58;;;;;;;9.30;4.90;;;;;;;15.39;75.72;99636.81;130399;1267;108725;-79
2022/10/02 10:08:22;;;;;;;7.40;4.00;;;;;;;15.21;75.47;99642.96;130423;1267;108977;-74
2022/10/02 10:11:47;;;;;;;5.80;2.90;;;;;;;15.10;76.53;99643.45;130429;1268;108672;-82
2022/10/02 10:15:22;;;;;;;5.60;2.70;;;;;;;15.09;76.05;99642.16;130462;1267;108599;-82
2022/10/02 10:19:02;;;;;;;4.40;2.00;;;;;;;15.04;74.35;99644.44;130645;1267;108079;-81
2022/10/02 10:22:43;;;;;;;5.10;2.10;;;;;;;15.02;73.70;99642.98;130608;1267;108726;-78
2022/10/02 10:26:15;;;;;;;10.60;4.40;;;;;;;15.03;74.77;99645.70;131513;1268;108967;-75
2022/10/02 10:29:50;;;;;;;6.60;2.20;;;;;;;15.11;72.02;99650.52;130565;1267;108957;-80
2022/10/02 10:33:35;;;;;;;9.70;4.80;;;;;;;15.08;70.83;99639.70;130669;1267;108937;-75
2022/10/02 10:40:37;;;;;;;5.20;2.50;;;;;;;15.62;72.91;99633.89;130406;1268;108695;-78
2022/10/02 10:44:14;;;;;;;4.90;2.10;;;;;;;15.81;72.06;99634.27;130566;1267;108916;-79
2022/10/02 10:47:57;;;;;;;5.30;2.80;;;;;;;15.72;71.70;99630.90;130483;1267;108861;-78
2022/10/02 10:51:19;;;;;;;5.30;2.90;;;;;;;15.61;70.33;99635.41;130531;1268;109315;-79
2022/10/02 10:54:49;;;;;;;9.00;4.00;;;;;;;15.45;71.63;99637.09;130554;1268;108948;-75
2022/10/02 10:58:15;;;;;;;4.60;2.30;;;;;;;15.54;70.87;99634.16;130449;1267;107846;-75
2022/10/02 11:01:23;;;;;;;3.80;1.90;;;;;;;15.41;69.62;99633.60;130968;1267;108976;-75
2022/10/02 11:04:45;;;;;;;5.40;2.20;;;;;;;15.14;69.65;99640.73;130386;1268;108716;-76
2022/10/02 11:08:01;;;;;;;;;;;;;;;15.04;71.67;99640.64;130421;1267;109189;-76
2022/10/02 11:11:16;;;;;;;5.90;2.80;;;;;;;15.03;70.91;99646.70;130551;1268;108942;-79
2022/10/02 11:14:35;;;;;;;4.80;2.20;;;;;;;15.06;72.14;99644.13;130462;1268;108664;-77
2022/10/02 11:17:56;;;;;;;4.30;2.20;;;;;;;15.21;71.27;99639.90;130571;1268;108728;-78
2022/10/02 11:21:27;;;;;;;5.20;1.90;;;;;;;15.29;70.02;99637.59;130500;1268;108679;-78
2022/10/02 11:24:47;;;;;;;3.40;2.00;;;;;;;15.38;69.65;99631.60;130554;1267;108817;-78
2022/10/02 11:28:32;;;;;;;3.30;1.80;;;;;;;15.45;69.01;99636.96;130483;1268;108727;-79
2022/10/02 11:32:08;;;;;;;4.70;1.70;;;;;;;15.46;69.41;99637.17;130647;1268;108758;-76
2022/10/02 11:35:24;;;;;;;4.00;1.90;;;;;;;15.46;69.54;99640.35;130494;1268;107191;-78
2022/10/02 11:38:48;;;;;;;5.10;1.70;;;;;;;15.35;69.91;99636.95;130481;1268;108583;-78
2022/10/02 11:42:40;;;;;;;7.70;4.20;;;;;;;15.21;68.89;99635.25;130507;1267;108807;-78
2022/10/02 11:46:06;;;;;;;4.10;2.10;;;;;;;15.06;69.21;99634.41;130011;1271;108846;-78
2022/10/02 11:49:42;;;;;;;5.40;1.90;;;;;;;15.05;70.13;99627.41;130443;1268;108800;-78
2022/10/02 11:53:11;;;;;;;5.80;2.30;;;;;;;15.05;69.63;99626.55;130537;1267;108789;-78
2022/10/02 11:56:42;;;;;;;8.00;3.10;;;;;;;14.99;69.24;99625.30;130584;1268;108719;-77
2022/10/02 12:00:05;;;;;;;7.00;2.80;;;;;;;14.82;68.95;99622.11;130521;1268;108708;-81
2022/10/02 12:03:25;;;;;;;7.50;3.90;;;;;;;14.72;69.28;99622.27;130450;1268;108587;-79
2022/10/02 12:06:51;;;;;;;5.10;3.30;;;;;;;14.79;69.53;99619.65;130491;1268;108676;-78
2022/10/02 12:10:13;;;;;;;5.80;2.70;;;;;;;14.89;69.69;99621.24;130497;1268;107715;-79
2022/10/02 12:13:58;;;;;;;4.30;2.90;;;;;;;14.85;68.75;99620.55;130520;1268;108536;-76
2022/10/02 12:17:16;;;;;;;8.00;2.80;;;;;;;14.68;69.09;99621.02;130368;1267;108962;-78
2022/10/02 12:27:55;;;;;;;6.90;2.90;;;;;;;14.73;69.54;99606.91;130087;1268;108713;-73
2022/10/02 12:31:09;;;;;;;7.40;4.40;;;;;;;14.72;70.13;99610.02;130424;1267;108690;-74
2022/10/02 12:34:29;;;;;;;10.10;3.50;;;;;;;14.72;69.74;99608.02;130524;1268;108733;-78
2022/10/02 12:37:42;;;;;;;7.20;4.00;;;;;;;14.64;69.96;99601.39;130514;1268;108964;-79
2022/10/02 12:40:58;;;;;;;23.30;11.80;;;;;;;14.65;69.69;99599.92;130379;1268;107740;-78
2022/10/02 12:44:31;;;;;;;7.60;3.20;;;;;;;14.71;70.15;99602.02;130598;1268;108858;-79
2022/10/02 12:48:05;;;;;;;9.50;4.20;;;;;;;14.70;69.65;99599.99;130612;1268;108771;-78
2022/10/02 12:51:34;;;;;;;7.30;4.00;;;;;;;14.70;70.08;99595.58;130594;1267;108747;-83
2022/10/02 12:55:11;;;;;;;8.70;3.70;;;;;;;14.67;70.24;99596.09;130809;1268;108788;-81
2022/10/02 12:58:23;;;;;;;6.10;2.80;;;;;;;14.71;70.66;99593.81;130639;1267;108714;-81
2022/10/02 13:02:06;;;;;;;6.30;3.10;;;;;;;14.81;70.66;99588.42;130758;1268;108236;-83
2022/10/02 13:05:45;;;;;;;4.80;2.40;;;;;;;14.86;70.52;99585.11;130761;1267;109475;-81
2022/10/02 13:09:28;;;;;;;4.80;2.10;;;;;;;14.89;70.33;99581.82;131022;1268;108832;-80
2022/10/02 13:12:52;;;;;;;6.60;2.50;;;;;;;14.96;70.00;99577.85;130542;1267;107633;-78
2022/10/02 13:16:11;;;;;;;6.10;2.30;;;;;;;15.30;70.61;99565.10;130869;1267;108720;-79
2022/10/02 13:19:29;;;;;;;4.20;2.20;;;;;;;15.92;70.60;99550.94;130668;1267;107690;-79
2022/10/02 13:22:45;;;;;;;6.10;2.40;;;;;;;16.40;70.02;99549.00;130879;1268;109084;-75
2022/10/02 13:26:07;;;;;;;5.10;2.40;;;;;;;16.63;69.83;99546.61;130911;1267;109667;-76
2022/10/02 13:29:28;;;;;;;4.90;2.30;;;;;;;16.68;67.61;99551.45;130457;1268;108989;-76
2022/10/02 13:32:45;;;;;;;5.90;2.40;;;;;;;16.62;67.44;99554.70;130760;1268;108692;-76
2022/10/02 13:36:11;;;;;;;4.60;2.50;;;;;;;16.59;68.68;99548.23;130557;1268;108821;-80
2022/10/02 13:39:32;;;;;;;6.10;2.80;;;;;;;16.70;67.12;99548.95;130614;1268;108809;-80
2022/10/02 13:42:50;;;;;;;5.00;2.30;;;;;;;16.62;66.59;99552.28;130554;1268;108406;-82
2022/10/02 13:46:05;;;;;;;4.70;2.20;;;;;;;16.49;67.22;99553.59;130720;1267;108933;-84
2022/10/02 13:49:21;;;;;;;4.90;2.20;;;;;;;16.41;66.59;99551.80;130595;1268;108608;-79
2022/10/02 13:52:34;;;;;;;3.70;1.60;;;;;;;16.35;66.82;99550.33;130588;1268;108781;-78
2022/10/02 13:55:45;;;;;;;5.40;3.00;;;;;;;16.35;66.80;99550.66;130462;1267;109155;-79
2022/10/02 13:59:10;;;;;;;9.90;2.80;;;;;;;16.07;63.79;99554.95;130440;1268;108850;-76
2022/10/02 14:02:32;;;;;;;5.10;1.90;;;;;;;15.79;64.68;99551.30;130596;1268;108777;-79
2022/10/02 14:05:46;;;;;;;3.00;1.70;;;;;;;15.79;66.16;99550.14;130534;1267;108546;-78
2022/10/02 14:09:22;;;;;;;4.00;2.50;;;;;;;15.71;65.01;99550.30;130480;1268;107733;-76
2022/10/02 14:12:37;;;;;;;10.60;7.50;;;;;;;15.52;65.07;99548.50;130645;1267;108540;-76
2022/10/02 14:16:02;;;;;;;9.70;5.50;;;;;;;15.47;65.93;99545.64;130457;1268;107378;-75
2022/10/02 14:19:27;;;;;;;12.40;6.10;;;;;;;15.42;66.03;99535.33;130522;1268;108741;-76
2022/10/02 14:22:45;;;;;;;6.20;3.10;;;;;;;15.29;65.71;99533.69;130519;1267;108717;-77
2022/10/02 14:26:01;;;;;;;4.80;3.30;;;;;;;15.15;65.82;99527.52;130475;1268;109822;-73
2022/10/02 14:29:22;;;;;;;146.10;74.30;;;;;;;15.03;66.14;99525.09;130495;1268;108985;-76
2022/10/02 14:32:48;;;;;;;7.80;4.40;;;;;;;14.94;66.06;99528.86;130564;1268;108706;-79
2022/10/02 14:36:04;;;;;;;8.40;4.30;;;;;;;14.85;66.16;99532.65;130456;1268;108615;-79
2022/10/02 14:39:25;;;;;;;5.90;2.10;;;;;;;14.80;65.92;99534.19;130423;1267;108734;-77
2022/10/02 14:42:44;;;;;;;3.50;2.10;;;;;;;14.76;66.29;99540.13;130420;1268;108855;-75
2022/10/02 14:46:17;;;;;;;4.70;3.10;;;;;;;14.70;65.71;99540.76;130363;1268;108797;-80
2022/10/02 14:49:38;;;;;;;5.40;2.80;;;;;;;14.66;65.41;99537.76;130414;1268;109778;-77
2022/10/02 14:53:19;;;;;;;5.60;3.20;;;;;;;14.47;65.18;99540.25;130374;1268;107896;-78
2022/10/02 14:56:48;;;;;;;7.30;3.60;;;;;;;14.32;65.68;99549.63;130426;1268;107674;-78
2022/10/02 15:00:12;;;;;;;6.50;3.60;;;;;;;14.20;66.23;99544.50;130386;1268;108886;-79
2022/10/02 15:03:37;;;;;;;5.20;2.90;;;;;;;14.08;66.24;99548.41;130679;1268;107008;-73
2022/10/02 15:06:59;;;;;;;24.00;14.30;;;;;;;13.99;66.56;99546.10;130642;1268;108666;-74
2022/10/02 15:10:15;;;;;;;6.80;3.80;;;;;;;13.96;66.79;99540.08;130440;1267;108706;-76
2022/10/02 15:13:31;;;;;;;4.20;2.30;;;;;;;13.89;66.93;99537.18;130483;1268;108814;-77
2022/10/02 15:20:23;;;;;;;8.10;4.40;;;;;;;13.80;67.63;99535.69;130649;1268;108843;-77
2022/10/02 15:23:43;;;;;;;5.00;2.70;;;;;;;13.82;67.71;99538.88;130421;1268;108697;-79
2022/10/02 15:27:02;;;;;;;82.30;48.70;;;;;;;13.82;67.59;99540.62;130688;1268;108745;-81